Terminal Aerodrome Forecast
Issued by NWS

Home | Current Version | Previous Version | Text Only | Print | Product List | Glossary On
Versions: 1 2 3 4 5 6 7 8 9 10 11 12 13 14
000
FTUS41 KBTV 291720
TAFMPV
TAF
KMPV 291720Z 2918/3018 21005KT P6SM FEW035 BKN200
     FM300000 VRB03KT P6SM BKN150 OVC200
     FM301400 28006KT P6SM SCT040=

USA.gov is the U.S. government's official web portal to all federal, state and local government web resources and services.